sensor_id;sensor_type;location;lat;lon;timestamp;P1;durP1;ratioP1;P2;durP2;ratioP2
65558;SDS011;52203;51.998;5.140;2023-05-21T00:01:01;5.95;;;3.78;;
65558;SDS011;52203;51.998;5.140;2023-05-21T00:03:29;7.38;;;3.83;;
65558;SDS011;52203;51.998;5.140;2023-05-21T00:05:55;4.95;;;3.42;;
65558;SDS011;52203;51.998;5.140;2023-05-21T00:08:21;5.72;;;3.63;;
65558;SDS011;52203;51.998;5.140;2023-05-21T00:10:47;5.43;;;3.55;;
65558;SDS011;52203;51.998;5.140;2023-05-21T00:13:16;6.03;;;3.40;;
65558;SDS011;52203;51.998;5.140;2023-05-21T00:15:42;4.85;;;3.42;;
65558;SDS011;52203;51.998;5.140;2023-05-21T00:18:08;7.05;;;3.88;;
65558;SDS011;52203;51.998;5.140;2023-05-21T00:20:34;5.72;;;3.78;;
65558;SDS011;52203;51.998;5.140;2023-05-21T00:22:59;5.28;;;3.58;;
65558;SDS011;52203;51.998;5.140;2023-05-21T00:25:29;5.88;;;3.33;;
65558;SDS011;52203;51.998;5.140;2023-05-21T00:27:55;5.50;;;3.47;;
65558;SDS011;52203;51.998;5.140;2023-05-21T00:30:21;4.60;;;3.50;;
65558;SDS011;52203;51.998;5.140;2023-05-21T00:32:46;5.60;;;3.67;;
65558;SDS011;52203;51.998;5.140;2023-05-21T00:35:12;5.88;;;3.72;;
65558;SDS011;52203;51.998;5.140;2023-05-21T00:37:38;6.38;;;3.80;;
65558;SDS011;52203;51.998;5.140;2023-05-21T00:40:04;5.03;;;3.45;;
65558;SDS011;52203;51.998;5.140;2023-05-21T00:42:31;4.45;;;3.15;;
65558;SDS011;52203;51.998;5.140;2023-05-21T00:44:57;4.35;;;3.20;;
65558;SDS011;52203;51.998;5.140;2023-05-21T00:47:23;6.10;;;3.50;;
65558;SDS011;52203;51.998;5.140;2023-05-21T00:49:51;5.95;;;3.47;;
65558;SDS011;52203;51.998;5.140;2023-05-21T00:52:17;6.45;;;3.53;;
65558;SDS011;52203;51.998;5.140;2023-05-21T00:54:47;4.60;;;3.25;;
65558;SDS011;52203;51.998;5.140;2023-05-21T00:57:13;4.78;;;3.47;;
65558;SDS011;52203;51.998;5.140;2023-05-21T00:59:44;6.65;;;3.80;;
65558;SDS011;52203;51.998;5.140;2023-05-21T01:02:11;6.20;;;3.53;;
65558;SDS011;52203;51.998;5.140;2023-05-21T01:04:38;6.35;;;3.50;;
65558;SDS011;52203;51.998;5.140;2023-05-21T01:07:04;4.30;;;3.53;;
65558;SDS011;52203;51.998;5.140;2023-05-21T01:09:30;6.10;;;3.50;;
65558;SDS011;52203;51.998;5.140;2023-05-21T01:11:56;4.07;;;3.25;;
65558;SDS011;52203;51.998;5.140;2023-05-21T01:14:24;6.78;;;3.90;;
65558;SDS011;52203;51.998;5.140;2023-05-21T01:16:50;5.65;;;3.67;;
65558;SDS011;52203;51.998;5.140;2023-05-21T01:19:19;5.60;;;3.53;;
65558;SDS011;52203;51.998;5.140;2023-05-21T01:21:51;7.50;;;3.60;;
65558;SDS011;52203;51.998;5.140;2023-05-21T01:24:17;6.25;;;3.55;;
65558;SDS011;52203;51.998;5.140;2023-05-21T01:26:43;6.60;;;3.80;;
65558;SDS011;52203;51.998;5.140;2023-05-21T01:29:12;5.40;;;3.90;;
65558;SDS011;52203;51.998;5.140;2023-05-21T01:34:40;5.60;;;3.53;;
65558;SDS011;52203;51.998;5.140;2023-05-21T01:37:20;5.10;;;3.50;;
65558;SDS011;52203;51.998;5.140;2023-05-21T01:39:51;6.55;;;3.80;;
65558;SDS011;52203;51.998;5.140;2023-05-21T01:42:21;4.60;;;3.35;;
65558;SDS011;52203;51.998;5.140;2023-05-21T01:44:49;5.45;;;3.85;;
65558;SDS011;52203;51.998;5.140;2023-05-21T01:47:20;6.78;;;4.22;;
65558;SDS011;52203;51.998;5.140;2023-05-21T01:49:48;6.63;;;3.67;;
65558;SDS011;52203;51.998;5.140;2023-05-21T01:52:14;6.28;;;4.03;;
65558;SDS011;52203;51.998;5.140;2023-05-21T01:54:40;8.07;;;4.45;;
65558;SDS011;52203;51.998;5.140;2023-05-21T01:57:05;6.38;;;3.45;;
65558;SDS011;52203;51.998;5.140;2023-05-21T01:59:31;6.00;;;3.85;;
65558;SDS011;52203;51.998;5.140;2023-05-21T02:01:57;6.13;;;4.03;;
65558;SDS011;52203;51.998;5.140;2023-05-21T02:04:22;5.30;;;3.72;;
65558;SDS011;52203;51.998;5.140;2023-05-21T02:06:48;6.20;;;3.65;;
65558;SDS011;52203;51.998;5.140;2023-05-21T02:09:14;5.93;;;4.05;;
65558;SDS011;52203;51.998;5.140;2023-05-21T02:11:39;7.13;;;4.00;;
65558;SDS011;52203;51.998;5.140;2023-05-21T02:14:05;6.75;;;3.83;;
65558;SDS011;52203;51.998;5.140;2023-05-21T02:16:32;6.32;;;4.03;;
65558;SDS011;52203;51.998;5.140;2023-05-21T02:18:58;6.72;;;4.03;;
65558;SDS011;52203;51.998;5.140;2023-05-21T02:21:24;6.55;;;3.95;;
65558;SDS011;52203;51.998;5.140;2023-05-21T02:23:50;9.20;;;3.95;;
65558;SDS011;52203;51.998;5.140;2023-05-21T02:26:16;5.22;;;3.70;;
65558;SDS011;52203;51.998;5.140;2023-05-21T02:28:41;7.38;;;4.13;;
65558;SDS011;52203;51.998;5.140;2023-05-21T02:31:08;6.43;;;4.20;;
65558;SDS011;52203;51.998;5.140;2023-05-21T02:33:34;6.80;;;3.97;;
65558;SDS011;52203;51.998;5.140;2023-05-21T02:35:59;5.72;;;4.00;;
65558;SDS011;52203;51.998;5.140;2023-05-21T02:38:25;6.70;;;4.43;;
65558;SDS011;52203;51.998;5.140;2023-05-21T02:40:50;8.10;;;4.45;;
65558;SDS011;52203;51.998;5.140;2023-05-21T02:43:16;7.75;;;4.38;;
65558;SDS011;52203;51.998;5.140;2023-05-21T02:45:42;7.35;;;4.38;;
65558;SDS011;52203;51.998;5.140;2023-05-21T02:48:08;6.65;;;4.68;;
65558;SDS011;52203;51.998;5.140;2023-05-21T02:50:33;8.63;;;4.40;;
65558;SDS011;52203;51.998;5.140;2023-05-21T02:52:59;7.00;;;4.13;;
65558;SDS011;52203;51.998;5.140;2023-05-21T02:55:24;6.70;;;4.13;;
65558;SDS011;52203;51.998;5.140;2023-05-21T02:57:53;7.13;;;4.45;;
65558;SDS011;52203;51.998;5.140;2023-05-21T03:00:19;8.68;;;4.40;;
65558;SDS011;52203;51.998;5.140;2023-05-21T03:02:45;5.85;;;3.95;;
65558;SDS011;52203;51.998;5.140;2023-05-21T03:05:12;7.05;;;4.65;;
65558;SDS011;52203;51.998;5.140;2023-05-21T03:07:38;7.95;;;4.82;;
65558;SDS011;52203;51.998;5.140;2023-05-21T03:10:07;6.82;;;4.40;;
65558;SDS011;52203;51.998;5.140;2023-05-21T03:12:33;6.25;;;3.80;;
65558;SDS011;52203;51.998;5.140;2023-05-21T03:14:59;7.85;;;4.88;;
65558;SDS011;52203;51.998;5.140;2023-05-21T03:17:24;8.73;;;4.88;;
65558;SDS011;52203;51.998;5.140;2023-05-21T03:19:50;8.35;;;4.55;;
65558;SDS011;52203;51.998;5.140;2023-05-21T03:22:16;6.72;;;4.55;;
65558;SDS011;52203;51.998;5.140;2023-05-21T03:24:41;6.32;;;4.22;;
65558;SDS011;52203;51.998;5.140;2023-05-21T03:27:09;8.30;;;5.18;;
65558;SDS011;52203;51.998;5.140;2023-05-21T03:29:34;8.43;;;4.60;;
65558;SDS011;52203;51.998;5.140;2023-05-21T03:32:00;6.57;;;4.78;;
65558;SDS011;52203;51.998;5.140;2023-05-21T03:34:26;6.57;;;4.00;;
65558;SDS011;52203;51.998;5.140;2023-05-21T03:36:51;7.05;;;4.93;;
65558;SDS011;52203;51.998;5.140;2023-05-21T03:39:17;6.63;;;4.28;;
65558;SDS011;52203;51.998;5.140;2023-05-21T03:41:42;6.78;;;4.38;;
65558;SDS011;52203;51.998;5.140;2023-05-21T03:44:08;7.72;;;5.00;;
65558;SDS011;52203;51.998;5.140;2023-05-21T03:46:34;8.77;;;4.90;;
65558;SDS011;52203;51.998;5.140;2023-05-21T03:48:59;6.32;;;4.35;;
65558;SDS011;52203;51.998;5.140;2023-05-21T03:51:25;7.50;;;4.80;;
65558;SDS011;52203;51.998;5.140;2023-05-21T03:53:51;7.07;;;4.68;;
65558;SDS011;52203;51.998;5.140;2023-05-21T03:56:17;7.45;;;4.70;;
65558;SDS011;52203;51.998;5.140;2023-05-21T03:58:42;6.85;;;4.70;;
65558;SDS011;52203;51.998;5.140;2023-05-21T04:01:08;6.45;;;4.30;;
65558;SDS011;52203;51.998;5.140;2023-05-21T04:03:34;7.85;;;4.53;;
65558;SDS011;52203;51.998;5.140;2023-05-21T04:06:01;8.23;;;4.53;;
65558;SDS011;52203;51.998;5.140;2023-05-21T04:08:27;8.07;;;4.15;;
65558;SDS011;52203;51.998;5.140;2023-05-21T04:10:52;8.05;;;4.43;;
65558;SDS011;52203;51.998;5.140;2023-05-21T04:13:17;9.18;;;4.97;;
65558;SDS011;52203;51.998;5.140;2023-05-21T04:15:43;7.40;;;4.80;;
65558;SDS011;52203;51.998;5.140;2023-05-21T04:18:10;7.53;;;4.75;;
65558;SDS011;52203;51.998;5.140;2023-05-21T04:20:42;6.78;;;4.78;;
65558;SDS011;52203;51.998;5.140;2023-05-21T04:23:08;8.45;;;4.60;;
65558;SDS011;52203;51.998;5.140;2023-05-21T04:25:33;8.90;;;4.45;;
65558;SDS011;52203;51.998;5.140;2023-05-21T04:27:59;10.13;;;5.10;;
65558;SDS011;52203;51.998;5.140;2023-05-21T04:30:24;7.97;;;4.65;;
65558;SDS011;52203;51.998;5.140;2023-05-21T04:32:50;8.10;;;4.93;;
65558;SDS011;52203;51.998;5.140;2023-05-21T04:35:16;7.20;;;4.60;;
65558;SDS011;52203;51.998;5.140;2023-05-21T04:37:42;9.18;;;4.93;;
65558;SDS011;52203;51.998;5.140;2023-05-21T04:40:10;9.25;;;5.03;;
65558;SDS011;52203;51.998;5.140;2023-05-21T04:42:36;10.55;;;4.57;;
65558;SDS011;52203;51.998;5.140;2023-05-21T04:45:03;6.88;;;4.30;;
65558;SDS011;52203;51.998;5.140;2023-05-21T04:47:29;7.53;;;4.75;;
65558;SDS011;52203;51.998;5.140;2023-05-21T04:49:59;7.53;;;4.63;;
65558;SDS011;52203;51.998;5.140;2023-05-21T04:52:26;9.27;;;4.95;;
65558;SDS011;52203;51.998;5.140;2023-05-21T04:54:51;7.63;;;4.32;;
65558;SDS011;52203;51.998;5.140;2023-05-21T04:57:18;7.43;;;4.57;;
65558;SDS011;52203;51.998;5.140;2023-05-21T04:59:43;8.25;;;4.97;;
65558;SDS011;52203;51.998;5.140;2023-05-21T05:02:09;7.18;;;4.72;;
65558;SDS011;52203;51.998;5.140;2023-05-21T05:04:34;7.22;;;4.70;;
65558;SDS011;52203;51.998;5.140;2023-05-21T05:07:00;7.15;;;4.57;;
65558;SDS011;52203;51.998;5.140;2023-05-21T05:09:25;8.25;;;4.55;;
65558;SDS011;52203;51.998;5.140;2023-05-21T05:11:51;8.35;;;4.63;;
65558;SDS011;52203;51.998;5.140;2023-05-21T05:14:17;8.48;;;5.47;;
65558;SDS011;52203;51.998;5.140;2023-05-21T05:16:42;8.40;;;4.65;;
65558;SDS011;52203;51.998;5.140;2023-05-21T05:19:08;7.53;;;4.35;;
65558;SDS011;52203;51.998;5.140;2023-05-21T05:21:34;6.30;;;4.45;;
65558;SDS011;52203;51.998;5.140;2023-05-21T05:23:59;7.32;;;4.32;;
65558;SDS011;52203;51.998;5.140;2023-05-21T05:26:25;7.65;;;4.75;;
65558;SDS011;52203;51.998;5.140;2023-05-21T05:28:50;8.38;;;4.68;;
65558;SDS011;52203;51.998;5.140;2023-05-21T05:31:16;6.20;;;4.28;;
65558;SDS011;52203;51.998;5.140;2023-05-21T05:33:42;7.93;;;4.60;;
65558;SDS011;52203;51.998;5.140;2023-05-21T05:36:08;7.20;;;4.53;;
65558;SDS011;52203;51.998;5.140;2023-05-21T05:38:33;6.38;;;4.30;;
65558;SDS011;52203;51.998;5.140;2023-05-21T05:41:00;9.25;;;4.55;;
65558;SDS011;52203;51.998;5.140;2023-05-21T05:43:25;9.10;;;4.38;;
65558;SDS011;52203;51.998;5.140;2023-05-21T05:45:51;11.07;;;5.85;;
65558;SDS011;52203;51.998;5.140;2023-05-21T05:48:16;8.10;;;4.95;;
65558;SDS011;52203;51.998;5.140;2023-05-21T05:50:42;7.72;;;4.57;;
65558;SDS011;52203;51.998;5.140;2023-05-21T05:53:15;8.05;;;4.97;;
65558;SDS011;52203;51.998;5.140;2023-05-21T05:55:40;7.75;;;4.72;;
65558;SDS011;52203;51.998;5.140;2023-05-21T05:58:11;9.93;;;4.97;;
65558;SDS011;52203;51.998;5.140;2023-05-21T06:00:37;7.47;;;4.47;;
65558;SDS011;52203;51.998;5.140;2023-05-21T06:03:03;8.38;;;4.80;;
65558;SDS011;52203;51.998;5.140;2023-05-21T06:05:29;8.95;;;4.95;;
65558;SDS011;52203;51.998;5.140;2023-05-21T06:07:54;7.68;;;4.65;;
65558;SDS011;52203;51.998;5.140;2023-05-21T06:10:20;7.82;;;4.97;;
65558;SDS011;52203;51.998;5.140;2023-05-21T06:12:46;8.02;;;5.20;;
65558;SDS011;52203;51.998;5.140;2023-05-21T06:15:12;6.53;;;4.53;;
65558;SDS011;52203;51.998;5.140;2023-05-21T06:17:39;7.85;;;4.38;;
65558;SDS011;52203;51.998;5.140;2023-05-21T06:20:07;8.10;;;5.35;;
65558;SDS011;52203;51.998;5.140;2023-05-21T06:22:33;9.18;;;4.82;;
65558;SDS011;52203;51.998;5.140;2023-05-21T06:25:00;8.07;;;4.78;;
65558;SDS011;52203;51.998;5.140;2023-05-21T06:27:26;7.78;;;5.18;;
65558;SDS011;52203;51.998;5.140;2023-05-21T06:29:52;8.50;;;4.90;;
65558;SDS011;52203;51.998;5.140;2023-05-21T06:32:17;7.50;;;5.20;;
65558;SDS011;52203;51.998;5.140;2023-05-21T06:34:45;7.95;;;4.97;;
65558;SDS011;52203;51.998;5.140;2023-05-21T06:37:10;8.13;;;5.07;;
65558;SDS011;52203;51.998;5.140;2023-05-21T06:39:41;9.38;;;5.32;;
65558;SDS011;52203;51.998;5.140;2023-05-21T06:42:07;11.02;;;5.35;;
65558;SDS011;52203;51.998;5.140;2023-05-21T06:44:32;9.32;;;5.43;;
65558;SDS011;52203;51.998;5.140;2023-05-21T06:46:58;7.80;;;5.20;;
65558;SDS011;52203;51.998;5.140;2023-05-21T06:49:24;7.53;;;4.88;;
65558;SDS011;52203;51.998;5.140;2023-05-21T06:51:53;8.00;;;5.13;;
65558;SDS011;52203;51.998;5.140;2023-05-21T06:54:18;8.45;;;5.13;;
65558;SDS011;52203;51.998;5.140;2023-05-21T06:56:44;8.88;;;5.28;;
65558;SDS011;52203;51.998;5.140;2023-05-21T06:59:10;9.00;;;5.38;;
65558;SDS011;52203;51.998;5.140;2023-05-21T07:01:35;10.02;;;5.43;;
65558;SDS011;52203;51.998;5.140;2023-05-21T07:04:01;8.30;;;5.70;;
65558;SDS011;52203;51.998;5.140;2023-05-21T07:06:27;9.68;;;5.47;;
65558;SDS011;52203;51.998;5.140;2023-05-21T07:08:52;10.90;;;6.15;;
65558;SDS011;52203;51.998;5.140;2023-05-21T07:11:21;8.45;;;4.97;;
65558;SDS011;52203;51.998;5.140;2023-05-21T07:13:49;8.32;;;5.35;;
65558;SDS011;52203;51.998;5.140;2023-05-21T07:16:14;9.38;;;5.32;;
65558;SDS011;52203;51.998;5.140;2023-05-21T07:18:41;9.98;;;5.65;;
65558;SDS011;52203;51.998;5.140;2023-05-21T07:21:07;9.18;;;5.60;;
65558;SDS011;52203;51.998;5.140;2023-05-21T07:23:32;8.27;;;5.75;;
65558;SDS011;52203;51.998;5.140;2023-05-21T07:25:58;9.30;;;6.38;;
65558;SDS011;52203;51.998;5.140;2023-05-21T07:28:24;11.38;;;5.57;;
65558;SDS011;52203;51.998;5.140;2023-05-21T07:30:49;9.82;;;6.55;;
65558;SDS011;52203;51.998;5.140;2023-05-21T07:33:15;9.18;;;5.55;;
65558;SDS011;52203;51.998;5.140;2023-05-21T07:35:41;12.27;;;5.97;;
65558;SDS011;52203;51.998;5.140;2023-05-21T07:38:06;9.57;;;5.72;;
65558;SDS011;52203;51.998;5.140;2023-05-21T07:40:32;10.70;;;5.97;;
65558;SDS011;52203;51.998;5.140;2023-05-21T07:42:57;9.35;;;5.85;;
65558;SDS011;52203;51.998;5.140;2023-05-21T07:45:23;8.15;;;5.85;;
65558;SDS011;52203;51.998;5.140;2023-05-21T07:47:48;8.98;;;5.60;;
65558;SDS011;52203;51.998;5.140;2023-05-21T07:50:14;14.85;;;6.47;;
65558;SDS011;52203;51.998;5.140;2023-05-21T07:52:55;10.10;;;5.75;;
65558;SDS011;52203;51.998;5.140;2023-05-21T07:55:42;9.55;;;5.80;;
65558;SDS011;52203;51.998;5.140;2023-05-21T07:58:13;11.70;;;6.00;;
65558;SDS011;52203;51.998;5.140;2023-05-21T08:00:43;9.23;;;5.82;;
65558;SDS011;52203;51.998;5.140;2023-05-21T08:06:06;11.63;;;5.90;;
65558;SDS011;52203;51.998;5.140;2023-05-21T08:08:31;8.25;;;5.60;;
65558;SDS011;52203;51.998;5.140;2023-05-21T08:10:59;9.05;;;5.85;;
65558;SDS011;52203;51.998;5.140;2023-05-21T08:13:25;10.20;;;5.75;;
65558;SDS011;52203;51.998;5.140;2023-05-21T08:15:51;10.25;;;5.53;;
65558;SDS011;52203;51.998;5.140;2023-05-21T08:18:16;9.70;;;6.13;;
65558;SDS011;52203;51.998;5.140;2023-05-21T08:20:42;10.55;;;5.32;;
65558;SDS011;52203;51.998;5.140;2023-05-21T08:23:07;8.77;;;5.63;;
65558;SDS011;52203;51.998;5.140;2023-05-21T08:25:33;9.50;;;5.80;;
65558;SDS011;52203;51.998;5.140;2023-05-21T08:27:58;9.07;;;5.60;;
65558;SDS011;52203;51.998;5.140;2023-05-21T08:30:24;9.48;;;5.13;;
65558;SDS011;52203;51.998;5.140;2023-05-21T08:32:49;9.43;;;5.18;;
65558;SDS011;52203;51.998;5.140;2023-05-21T08:35:15;9.30;;;5.97;;
65558;SDS011;52203;51.998;5.140;2023-05-21T08:37:40;8.95;;;5.30;;
65558;SDS011;52203;51.998;5.140;2023-05-21T08:40:06;8.45;;;5.55;;
65558;SDS011;52203;51.998;5.140;2023-05-21T08:42:45;10.68;;;6.15;;
65558;SDS011;52203;51.998;5.140;2023-05-21T08:45:24;9.60;;;5.60;;
65558;SDS011;52203;51.998;5.140;2023-05-21T08:47:54;8.35;;;4.97;;
65558;SDS011;52203;51.998;5.140;2023-05-21T08:50:21;8.82;;;5.45;;
65558;SDS011;52203;51.998;5.140;2023-05-21T08:52:50;7.85;;;5.18;;
65558;SDS011;52203;51.998;5.140;2023-05-21T08:55:17;8.68;;;5.65;;
65558;SDS011;52203;51.998;5.140;2023-05-21T08:57:42;8.13;;;5.20;;
65558;SDS011;52203;51.998;5.140;2023-05-21T09:00:09;9.38;;;5.80;;
65558;SDS011;52203;51.998;5.140;2023-05-21T09:02:36;11.93;;;6.32;;
65558;SDS011;52203;51.998;5.140;2023-05-21T09:05:04;10.40;;;5.80;;
65558;SDS011;52203;51.998;5.140;2023-05-21T09:07:31;8.68;;;5.75;;
65558;SDS011;52203;51.998;5.140;2023-05-21T09:10:11;10.25;;;6.03;;
65558;SDS011;52203;51.998;5.140;2023-05-21T09:12:37;9.35;;;5.45;;
65558;SDS011;52203;51.998;5.140;2023-05-21T09:15:04;9.27;;;5.50;;
65558;SDS011;52203;51.998;5.140;2023-05-21T09:17:31;11.48;;;6.00;;
65558;SDS011;52203;51.998;5.140;2023-05-21T09:20:03;9.80;;;5.85;;
65558;SDS011;52203;51.998;5.140;2023-05-21T09:22:39;10.65;;;5.60;;
65558;SDS011;52203;51.998;5.140;2023-05-21T09:25:16;9.48;;;5.88;;
65558;SDS011;52203;51.998;5.140;2023-05-21T09:27:45;10.02;;;5.80;;
65558;SDS011;52203;51.998;5.140;2023-05-21T09:30:14;10.02;;;5.88;;
65558;SDS011;52203;51.998;5.140;2023-05-21T09:32:42;10.45;;;5.88;;
65558;SDS011;52203;51.998;5.140;2023-05-21T09:37:38;9.77;;;5.65;;
65558;SDS011;52203;51.998;5.140;2023-05-21T09:40:11;8.27;;;5.43;;
65558;SDS011;52203;51.998;5.140;2023-05-21T09:42:53;10.52;;;5.43;;
65558;SDS011;52203;51.998;5.140;2023-05-21T09:47:45;9.82;;;5.40;;
65558;SDS011;52203;51.998;5.140;2023-05-21T09:50:12;10.35;;;5.82;;
65558;SDS011;52203;51.998;5.140;2023-05-21T09:52:41;7.72;;;5.50;;
65558;SDS011;52203;51.998;5.140;2023-05-21T09:55:12;8.75;;;5.35;;
65558;SDS011;52203;51.998;5.140;2023-05-21T09:57:48;8.43;;;5.55;;
65558;SDS011;52203;51.998;5.140;2023-05-21T10:00:29;9.82;;;5.38;;
65558;SDS011;52203;51.998;5.140;2023-05-21T10:02:57;9.10;;;5.82;;
65558;SDS011;52203;51.998;5.140;2023-05-21T10:05:27;8.70;;;5.53;;
65558;SDS011;52203;51.998;5.140;2023-05-21T10:08:04;11.07;;;5.82;;
65558;SDS011;52203;51.998;5.140;2023-05-21T10:10:34;7.57;;;5.85;;
65558;SDS011;52203;51.998;5.140;2023-05-21T10:13:05;8.68;;;5.85;;
65558;SDS011;52203;51.998;5.140;2023-05-21T10:15:36;9.35;;;5.22;;
65558;SDS011;52203;51.998;5.140;2023-05-21T10:18:04;8.35;;;5.63;;
65558;SDS011;52203;51.998;5.140;2023-05-21T10:20:35;9.25;;;5.78;;
65558;SDS011;52203;51.998;5.140;2023-05-21T10:24:22;9.82;;;5.95;;
65558;SDS011;52203;51.998;5.140;2023-05-21T10:26:48;9.18;;;5.85;;
65558;SDS011;52203;51.998;5.140;2023-05-21T10:29:14;8.55;;;6.40;;
65558;SDS011;52203;51.998;5.140;2023-05-21T10:31:41;9.35;;;5.90;;
65558;SDS011;52203;51.998;5.140;2023-05-21T10:34:10;10.20;;;6.00;;
65558;SDS011;52203;51.998;5.140;2023-05-21T10:36:37;8.65;;;5.82;;
65558;SDS011;52203;51.998;5.140;2023-05-21T10:39:05;9.68;;;5.75;;
65558;SDS011;52203;51.998;5.140;2023-05-21T10:41:33;11.07;;;5.82;;
65558;SDS011;52203;51.998;5.140;2023-05-21T10:44:11;10.30;;;6.00;;
65558;SDS011;52203;51.998;5.140;2023-05-21T10:47:18;9.10;;;5.55;;
65558;SDS011;52203;51.998;5.140;2023-05-21T10:53:00;8.50;;;5.82;;
65558;SDS011;52203;51.998;5.140;2023-05-21T10:55:41;10.88;;;5.60;;
65558;SDS011;52203;51.998;5.140;2023-05-21T10:58:38;9.10;;;6.15;;
65558;SDS011;52203;51.998;5.140;2023-05-21T11:01:28;8.07;;;6.13;;
65558;SDS011;52203;51.998;5.140;2023-05-21T11:03:58;9.60;;;5.90;;
65558;SDS011;52203;51.998;5.140;2023-05-21T11:06:24;8.65;;;6.00;;
65558;SDS011;52203;51.998;5.140;2023-05-21T11:08:51;14.85;;;6.60;;
65558;SDS011;52203;51.998;5.140;2023-05-21T11:11:38;9.70;;;6.35;;
65558;SDS011;52203;51.998;5.140;2023-05-21T11:19:44;11.25;;;5.72;;
65558;SDS011;52203;51.998;5.140;2023-05-21T11:22:25;9.50;;;5.90;;
65558;SDS011;52203;51.998;5.140;2023-05-21T11:24:51;10.23;;;6.13;;
65558;SDS011;52203;51.998;5.140;2023-05-21T11:27:40;11.55;;;7.07;;
65558;SDS011;52203;51.998;5.140;2023-05-21T11:30:08;8.50;;;6.10;;
65558;SDS011;52203;51.998;5.140;2023-05-21T11:32:38;10.80;;;6.35;;
65558;SDS011;52203;51.998;5.140;2023-05-21T11:35:26;12.82;;;6.70;;
65558;SDS011;52203;51.998;5.140;2023-05-21T11:37:52;9.73;;;6.32;;
65558;SDS011;52203;51.998;5.140;2023-05-21T11:40:21;10.13;;;5.85;;
65558;SDS011;52203;51.998;5.140;2023-05-21T11:42:50;9.27;;;6.40;;
65558;SDS011;52203;51.998;5.140;2023-05-21T11:45:18;9.15;;;6.25;;
65558;SDS011;52203;51.998;5.140;2023-05-21T11:47:46;10.68;;;6.15;;
65558;SDS011;52203;51.998;5.140;2023-05-21T11:50:13;9.13;;;5.55;;
65558;SDS011;52203;51.998;5.140;2023-05-21T11:52:39;9.55;;;5.82;;
65558;SDS011;52203;51.998;5.140;2023-05-21T11:55:08;10.88;;;5.90;;
65558;SDS011;52203;51.998;5.140;2023-05-21T11:57:35;11.80;;;6.47;;
65558;SDS011;52203;51.998;5.140;2023-05-21T12:00:02;9.10;;;6.13;;
65558;SDS011;52203;51.998;5.140;2023-05-21T12:02:42;9.07;;;6.28;;
65558;SDS011;52203;51.998;5.140;2023-05-21T12:05:09;8.85;;;5.82;;
65558;SDS011;52203;51.998;5.140;2023-05-21T12:07:34;9.52;;;6.22;;
65558;SDS011;52203;51.998;5.140;2023-05-21T12:10:00;9.25;;;6.43;;
65558;SDS011;52203;51.998;5.140;2023-05-21T12:12:25;10.68;;;6.72;;
65558;SDS011;52203;51.998;5.140;2023-05-21T12:14:53;11.13;;;6.03;;
65558;SDS011;52203;51.998;5.140;2023-05-21T12:17:22;8.63;;;6.07;;
65558;SDS011;52203;51.998;5.140;2023-05-21T12:19:55;10.23;;;6.63;;
65558;SDS011;52203;51.998;5.140;2023-05-21T12:22:21;9.43;;;6.10;;
65558;SDS011;52203;51.998;5.140;2023-05-21T12:24:48;10.48;;;6.22;;
65558;SDS011;52203;51.998;5.140;2023-05-21T12:27:14;10.77;;;6.78;;
65558;SDS011;52203;51.998;5.140;2023-05-21T12:29:44;10.90;;;6.72;;
65558;SDS011;52203;51.998;5.140;2023-05-21T12:32:13;9.43;;;6.15;;
65558;SDS011;52203;51.998;5.140;2023-05-21T12:34:40;10.23;;;6.28;;
65558;SDS011;52203;51.998;5.140;2023-05-21T12:37:14;11.25;;;6.78;;
65558;SDS011;52203;51.998;5.140;2023-05-21T12:39:41;13.55;;;6.63;;
65558;SDS011;52203;51.998;5.140;2023-05-21T12:42:07;10.40;;;6.40;;
65558;SDS011;52203;51.998;5.140;2023-05-21T12:44:33;10.77;;;6.45;;
65558;SDS011;52203;51.998;5.140;2023-05-21T12:46:59;10.48;;;6.43;;
65558;SDS011;52203;51.998;5.140;2023-05-21T12:49:35;11.63;;;7.22;;
65558;SDS011;52203;51.998;5.140;2023-05-21T12:52:03;12.65;;;6.70;;
65558;SDS011;52203;51.998;5.140;2023-05-21T12:54:37;11.18;;;6.72;;
65558;SDS011;52203;51.998;5.140;2023-05-21T12:57:07;10.98;;;6.70;;
65558;SDS011;52203;51.998;5.140;2023-05-21T13:02:24;11.00;;;7.07;;
65558;SDS011;52203;51.998;5.140;2023-05-21T13:04:53;11.30;;;6.28;;
65558;SDS011;52203;51.998;5.140;2023-05-21T13:07:23;11.77;;;6.55;;
65558;SDS011;52203;51.998;5.140;2023-05-21T13:09:50;11.68;;;7.22;;
65558;SDS011;52203;51.998;5.140;2023-05-21T13:12:17;9.77;;;6.70;;
65558;SDS011;52203;51.998;5.140;2023-05-21T13:14:44;9.35;;;5.93;;
65558;SDS011;52203;51.998;5.140;2023-05-21T13:17:09;10.23;;;6.85;;
65558;SDS011;52203;51.998;5.140;2023-05-21T13:19:35;13.63;;;6.00;;
65558;SDS011;52203;51.998;5.140;2023-05-21T13:22:01;9.48;;;5.78;;
65558;SDS011;52203;51.998;5.140;2023-05-21T13:24:27;9.95;;;5.60;;
65558;SDS011;52203;51.998;5.140;2023-05-21T13:26:52;9.20;;;5.78;;
65558;SDS011;52203;51.998;5.140;2023-05-21T13:29:18;10.65;;;5.88;;
65558;SDS011;52203;51.998;5.140;2023-05-21T13:31:44;11.55;;;6.40;;
65558;SDS011;52203;51.998;5.140;2023-05-21T13:34:10;10.80;;;5.95;;
65558;SDS011;52203;51.998;5.140;2023-05-21T13:36:36;8.75;;;5.63;;
65558;SDS011;52203;51.998;5.140;2023-05-21T13:39:02;9.85;;;6.18;;
65558;SDS011;52203;51.998;5.140;2023-05-21T13:41:28;10.48;;;6.20;;
65558;SDS011;52203;51.998;5.140;2023-05-21T13:43:54;11.15;;;6.30;;
65558;SDS011;52203;51.998;5.140;2023-05-21T13:46:19;10.38;;;5.95;;
65558;SDS011;52203;51.998;5.140;2023-05-21T13:48:45;10.23;;;5.72;;
65558;SDS011;52203;51.998;5.140;2023-05-21T13:51:10;10.48;;;6.40;;
65558;SDS011;52203;51.998;5.140;2023-05-21T13:53:36;10.80;;;6.72;;
65558;SDS011;52203;51.998;5.140;2023-05-21T13:56:02;13.82;;;6.95;;
65558;SDS011;52203;51.998;5.140;2023-05-21T13:58:28;12.27;;;7.00;;
65558;SDS011;52203;51.998;5.140;2023-05-21T14:00:58;12.50;;;6.93;;
65558;SDS011;52203;51.998;5.140;2023-05-21T14:03:27;9.63;;;6.03;;
65558;SDS011;52203;51.998;5.140;2023-05-21T14:05:53;12.57;;;6.97;;
65558;SDS011;52203;51.998;5.140;2023-05-21T14:08:19;11.00;;;6.95;;
65558;SDS011;52203;51.998;5.140;2023-05-21T14:10:45;11.65;;;7.15;;
65558;SDS011;52203;51.998;5.140;2023-05-21T14:13:12;10.25;;;6.78;;
65558;SDS011;52203;51.998;5.140;2023-05-21T14:15:37;11.63;;;7.03;;
65558;SDS011;52203;51.998;5.140;2023-05-21T14:18:04;10.18;;;6.75;;
65558;SDS011;52203;51.998;5.140;2023-05-21T14:20:32;9.90;;;6.35;;
65558;SDS011;52203;51.998;5.140;2023-05-21T14:22:58;9.82;;;6.50;;
65558;SDS011;52203;51.998;5.140;2023-05-21T14:25:23;11.68;;;5.88;;
65558;SDS011;52203;51.998;5.140;2023-05-21T14:27:49;11.98;;;6.18;;
65558;SDS011;52203;51.998;5.140;2023-05-21T14:30:14;8.93;;;6.15;;
65558;SDS011;52203;51.998;5.140;2023-05-21T14:32:40;9.52;;;5.53;;
65558;SDS011;52203;51.998;5.140;2023-05-21T14:35:05;11.45;;;5.57;;
65558;SDS011;52203;51.998;5.140;2023-05-21T14:37:31;11.63;;;5.82;;
65558;SDS011;52203;51.998;5.140;2023-05-21T14:39:57;8.55;;;5.78;;
65558;SDS011;52203;51.998;5.140;2023-05-21T14:42:22;10.30;;;6.40;;
65558;SDS011;52203;51.998;5.140;2023-05-21T14:44:48;9.75;;;6.25;;
65558;SDS011;52203;51.998;5.140;2023-05-21T14:47:13;11.27;;;6.53;;
65558;SDS011;52203;51.998;5.140;2023-05-21T14:49:39;9.20;;;5.43;;
65558;SDS011;52203;51.998;5.140;2023-05-21T14:52:05;10.10;;;5.35;;
65558;SDS011;52203;51.998;5.140;2023-05-21T14:54:30;11.57;;;5.05;;
65558;SDS011;52203;51.998;5.140;2023-05-21T14:56:56;8.90;;;4.80;;
65558;SDS011;52203;51.998;5.140;2023-05-21T14:59:21;10.75;;;5.00;;
65558;SDS011;52203;51.998;5.140;2023-05-21T15:01:47;8.30;;;4.75;;
65558;SDS011;52203;51.998;5.140;2023-05-21T15:04:13;10.18;;;5.72;;
65558;SDS011;52203;51.998;5.140;2023-05-21T15:06:38;9.25;;;5.55;;
65558;SDS011;52203;51.998;5.140;2023-05-21T15:09:04;10.65;;;5.70;;